Time;durP1;ratioP1;P1;durP2;ratioP2;P2;SDS_P1;SDS_P2;PMS_P1;PMS_P2;Temp;Humidity;BMP_temperature;BMP_pressure;BME280_temperature;BME280_humidity;BME280_pressure;Samples;Min_cycle;Max_cycle;Signal;HPM_P1;HPM_P2
2020/12/31 00:01:30;;;;;;;43.47;24.65;;;23.20;37.80;;;;;;6292939;27;83458;-43
2020/12/31 00:04:31;;;;;;;38.88;24.63;;;23.20;38.20;;;;;;6291660;27;83583;-43
2020/12/31 00:07:31;;;;;;;41.63;24.98;;;23.20;38.10;;;;;;6290899;27;83947;-43
2020/12/31 00:10:32;;;;;;;42.10;24.02;;;23.20;37.90;;;;;;6297485;27;83226;-44
2020/12/31 00:13:32;;;;;;;41.85;23.95;;;23.20;38.00;;;;;;6292046;27;84765;-44
2020/12/31 00:16:33;;;;;;;38.95;22.45;;;23.20;37.90;;;;;;6276668;27;84065;-43
2020/12/31 00:19:33;;;;;;;40.17;23.42;;;23.20;38.00;;;;;;6297330;27;83408;-43
2020/12/31 00:22:34;;;;;;;39.53;23.77;;;23.10;38.00;;;;;;6296082;27;84018;-43
2020/12/31 00:25:34;;;;;;;41.22;24.60;;;23.10;37.80;;;;;;6278608;27;86025;-43
2020/12/31 00:28:35;;;;;;;40.45;23.70;;;23.10;38.00;;;;;;6276579;27;83423;-43
2020/12/31 00:31:35;;;;;;;42.95;23.23;;;23.10;38.00;;;;;;6285685;27;84029;-42
2020/12/31 00:34:36;;;;;;;40.80;23.60;;;23.10;37.90;;;;;;6294737;27;83335;-43
2020/12/31 00:37:36;;;;;;;36.35;22.38;;;23.10;37.70;;;;;;6295173;27;83088;-43
2020/12/31 00:40:37;;;;;;;40.97;22.27;;;23.10;37.90;;;;;;6294999;27;83387;-43
2020/12/31 00:43:38;;;;;;;41.30;23.20;;;23.10;37.80;;;;;;6274356;27;85294;-43
2020/12/31 00:46:38;;;;;;;40.95;23.90;;;23.10;38.00;;;;;;6283866;27;83410;-44
2020/12/31 00:49:39;;;;;;;40.22;21.80;;;23.10;37.70;;;;;;6294255;27;83549;-45
2020/12/31 00:52:39;;;;;;;40.88;22.23;;;23.10;37.90;;;;;;6292834;27;84116;-43
2020/12/31 00:55:40;;;;;;;38.20;22.83;;;23.10;37.80;;;;;;6277010;27;85148;-44
2020/12/31 00:58:42;;;;;;;40.33;23.60;;;23.10;37.70;;;;;;6274250;27;85807;-46
2020/12/31 01:01:42;;;;;;;41.15;22.75;;;23.10;38.20;;;;;;6297950;27;92944;-41
2020/12/31 01:04:43;;;;;;;43.15;24.25;;;23.10;37.80;;;;;;6292708;27;83501;-43
2020/12/31 01:07:43;;;;;;;40.78;22.92;;;23.00;37.60;;;;;;6293638;27;84357;-42
2020/12/31 01:10:44;;;;;;;42.08;23.38;;;23.10;37.70;;;;;;6295733;27;83031;-43
2020/12/31 01:13:45;;;;;;;40.58;22.73;;;23.10;37.90;;;;;;6295475;27;84028;-42
2020/12/31 01:16:45;;;;;;;42.15;23.08;;;23.10;37.70;;;;;;6294229;27;84086;-43
2020/12/31 01:19:46;;;;;;;40.80;24.35;;;23.10;37.90;;;;;;6289865;27;83446;-43
2020/12/31 01:22:46;;;;;;;47.72;24.60;;;23.10;37.80;;;;;;6288639;27;83187;-43
2020/12/31 01:25:47;;;;;;;39.42;22.85;;;23.10;37.90;;;;;;6292824;27;84215;-42
2020/12/31 01:28:47;;;;;;;37.72;22.15;;;23.00;37.60;;;;;;6290291;27;84050;-42
2020/12/31 01:31:48;;;;;;;39.45;22.20;;;23.00;37.70;;;;;;6298652;27;85348;-42
2020/12/31 01:34:48;;;;;;;40.70;23.08;;;23.00;37.80;;;;;;6300109;27;84100;-43
2020/12/31 01:37:49;;;;;;;42.22;23.33;;;23.00;37.80;;;;;;6282167;27;83094;-42
2020/12/31 01:40:52;;;;;;;46.10;23.90;;;23.00;37.80;;;;;;6284835;27;83313;-42
2020/12/31 01:43:52;;;;;;;41.95;23.58;;;23.00;37.80;;;;;;6280229;27;86141;-43
2020/12/31 01:46:53;;;;;;;41.05;22.90;;;23.00;38.00;;;;;;6298698;27;83300;-42
2020/12/31 01:49:54;;;;;;;39.15;23.02;;;23.00;38.00;;;;;;6297530;27;84641;-43
2020/12/31 01:52:54;;;;;;;37.42;20.00;;;23.00;38.10;;;;;;6282711;27;85645;-43
2020/12/31 01:55:55;;;;;;;39.30;23.05;;;23.00;38.30;;;;;;6296549;27;86955;-43
2020/12/31 01:58:55;;;;;;;42.03;22.83;;;23.00;37.60;;;;;;6294418;27;83323;-42
2020/12/31 02:01:56;;;;;;;46.17;24.88;;;23.00;38.00;;;;;;6259801;27;84312;-43
2020/12/31 02:04:56;;;;;;;42.85;23.83;;;22.90;38.10;;;;;;6290439;27;83789;-44
2020/12/31 02:07:57;;;;;;;40.95;21.25;;;22.90;37.90;;;;;;6295269;27;83004;-42
2020/12/31 02:10:57;;;;;;;41.22;22.77;;;22.90;38.10;;;;;;6298230;27;82985;-43
2020/12/31 02:13:59;;;;;;;43.75;23.98;;;22.90;38.00;;;;;;6299396;27;82968;-42
2020/12/31 02:16:59;;;;;;;42.20;23.50;;;22.90;37.90;;;;;;6286599;27;83445;-43
2020/12/31 02:20:00;;;;;;;40.80;22.25;;;22.90;38.00;;;;;;6295337;27;83625;-43
2020/12/31 02:23:00;;;;;;;36.67;21.17;;;22.90;37.70;;;;;;6287811;27;83480;-43
2020/12/31 02:26:01;;;;;;;34.83;20.58;;;22.90;38.00;;;;;;6286527;27;84030;-42
2020/12/31 02:29:01;;;;;;;36.30;21.42;;;22.90;38.10;;;;;;6291911;27;83045;-43
2020/12/31 02:32:02;;;;;;;39.90;22.35;;;22.90;37.80;;;;;;6291016;27;83521;-42
2020/12/31 02:35:03;;;;;;;38.40;21.88;;;22.90;37.80;;;;;;6296291;27;83395;-42
2020/12/31 02:38:03;;;;;;;39.58;21.52;;;22.90;37.90;;;;;;6297983;27;83339;-43
2020/12/31 02:41:04;;;;;;;41.67;22.60;;;22.90;38.20;;;;;;6297505;27;83399;-43
2020/12/31 02:44:04;;;;;;;42.97;22.77;;;22.90;37.90;;;;;;6290510;27;84124;-43
2020/12/31 02:47:05;;;;;;;37.83;21.13;;;22.90;37.70;;;;;;6271962;27;85972;-43
2020/12/31 02:50:05;;;;;;;38.10;22.25;;;22.90;37.40;;;;;;6291024;27;83142;-43
2020/12/31 02:53:06;;;;;;;35.53;21.38;;;22.90;37.70;;;;;;6298067;27;83283;-43
2020/12/31 02:56:06;;;;;;;38.65;21.20;;;22.90;37.90;;;;;;6296513;27;84068;-43
2020/12/31 02:59:07;;;;;;;39.30;22.35;;;22.90;37.40;;;;;;6297166;27;83410;-42
2020/12/31 03:02:07;;;;;;;42.65;21.30;;;22.90;38.10;;;;;;6292864;27;83246;-43
2020/12/31 03:05:08;;;;;;;38.40;21.88;;;22.90;37.50;;;;;;6297787;27;83267;-42
2020/12/31 03:08:08;;;;;;;37.05;21.40;;;22.90;37.60;;;;;;6298901;27;83233;-43
2020/12/31 03:11:09;;;;;;;35.72;20.00;;;22.90;37.40;;;;;;6286900;27;83528;-43
2020/12/31 03:14:10;;;;;;;38.47;22.00;;;22.90;37.70;;;;;;6297845;27;84214;-42
2020/12/31 03:17:10;;;;;;;40.20;22.60;;;22.90;37.40;;;;;;6284134;27;83339;-43
2020/12/31 03:20:11;;;;;;;40.58;22.98;;;22.90;37.50;;;;;;6298425;27;83551;-42
2020/12/31 03:23:11;;;;;;;37.10;20.70;;;22.90;37.30;;;;;;6295618;27;84058;-42
2020/12/31 03:26:12;;;;;;;35.45;21.00;;;22.90;37.30;;;;;;6285558;27;83570;-42
2020/12/31 03:29:12;;;;;;;36.30;20.38;;;22.90;37.50;;;;;;6295464;27;84061;-43
2020/12/31 03:32:13;;;;;;;35.95;20.88;;;22.80;37.40;;;;;;6289609;27;89726;-48
2020/12/31 03:35:13;;;;;;;36.20;20.23;;;22.80;37.30;;;;;;6293031;27;83359;-43
2020/12/31 03:38:14;;;;;;;36.92;22.45;;;22.80;37.60;;;;;;6298375;27;88714;-43
2020/12/31 03:41:14;;;;;;;42.05;21.90;;;22.90;37.60;;;;;;6296064;27;83546;-43
2020/12/31 03:44:15;;;;;;;34.65;20.38;;;22.80;37.20;;;;;;6294379;27;83386;-42
2020/12/31 03:47:15;;;;;;;39.90;22.05;;;22.80;37.40;;;;;;6296889;27;83395;-43
2020/12/31 03:50:16;;;;;;;41.47;23.70;;;22.80;37.40;;;;;;6294643;27;84581;-43
2020/12/31 03:53:16;;;;;;;46.83;24.95;;;22.90;37.30;;;;;;6295372;27;83643;-43
2020/12/31 03:56:18;;;;;;;38.50;22.42;;;22.80;37.30;;;;;;6278725;27;84316;-43
2020/12/31 03:59:19;;;;;;;38.15;21.17;;;22.80;37.50;;;;;;6293629;27;85038;-49
2020/12/31 04:02:19;;;;;;;44.53;22.65;;;22.80;37.70;;;;;;6298102;27;83180;-48
2020/12/31 04:05:20;;;;;;;38.28;21.88;;;22.80;37.70;;;;;;6298335;27;83491;-49
2020/12/31 04:08:20;;;;;;;40.17;23.10;;;22.80;37.50;;;;;;6296273;27;83298;-48
2020/12/31 04:11:21;;;;;;;42.60;22.88;;;22.80;37.60;;;;;;6295446;27;84110;-49
2020/12/31 04:14:21;;;;;;;38.40;21.42;;;22.80;37.50;;;;;;6295645;27;83033;-48
2020/12/31 04:17:22;;;;;;;41.00;23.00;;;22.80;37.60;;;;;;6295930;27;84424;-48
2020/12/31 04:20:22;;;;;;;46.95;24.05;;;22.80;37.10;;;;;;6295191;27;83063;-48
2020/12/31 04:23:23;;;;;;;44.53;25.88;;;22.80;37.40;;;;;;6297316;27;83468;-48
2020/12/31 04:26:23;;;;;;;45.33;24.95;;;22.80;37.10;;;;;;6285059;27;84087;-41
2020/12/31 04:29:24;;;;;;;40.20;22.05;;;22.80;37.50;;;;;;6297550;27;84176;-41
2020/12/31 04:32:24;;;;;;;39.75;22.38;;;22.80;37.80;;;;;;6293595;27;83287;-42
2020/12/31 04:35:25;;;;;;;37.58;18.83;;;22.80;38.40;;;;;;6292746;27;83202;-41
2020/12/31 04:38:25;;;;;;;35.47;20.80;;;22.80;39.10;;;;;;6279299;27;83447;-41
2020/12/31 04:41:26;;;;;;;40.63;22.00;;;22.80;39.00;;;;;;6295790;27;83270;-41
2020/12/31 04:44:27;;;;;;;46.00;23.67;;;22.80;39.10;;;;;;6296067;27;82938;-41
2020/12/31 04:47:27;;;;;;;38.10;21.27;;;22.80;38.90;;;;;;6277785;27;83129;-42
2020/12/31 04:50:28;;;;;;;43.17;22.02;;;22.80;39.00;;;;;;6295639;27;83560;-43
2020/12/31 04:53:28;;;;;;;46.65;23.25;;;22.80;38.90;;;;;;6295587;27;83102;-42
2020/12/31 04:56:29;;;;;;;39.83;20.65;;;22.80;39.10;;;;;;6294231;27;83633;-42
2020/12/31 04:59:29;;;;;;;38.00;21.33;;;22.80;39.00;;;;;;6293893;27;83331;-41
2020/12/31 05:02:30;;;;;;;41.38;22.10;;;22.80;38.90;;;;;;6292663;27;83073;-41
2020/12/31 05:05:30;;;;;;;40.55;22.05;;;22.80;38.90;;;;;;6290640;27;84882;-41
2020/12/31 05:08:31;;;;;;;38.63;20.98;;;22.80;38.90;;;;;;6290554;27;83331;-41
2020/12/31 05:11:31;;;;;;;38.25;22.15;;;22.80;38.70;;;;;;6299871;27;86812;-42
2020/12/31 05:14:32;;;;;;;36.80;20.67;;;22.80;39.10;;;;;;6280199;27;83516;-41
2020/12/31 05:17:32;;;;;;;41.22;20.73;;;22.80;38.90;;;;;;6299077;27;83270;-41
2020/12/31 05:20:33;;;;;;;39.72;20.95;;;22.80;39.00;;;;;;6279263;27;85357;-41
2020/12/31 05:23:34;;;;;;;37.83;20.58;;;22.80;38.80;;;;;;6295607;27;84384;-41
2020/12/31 05:26:34;;;;;;;35.97;20.65;;;22.80;38.80;;;;;;6294218;27;83523;-41
2020/12/31 05:29:35;;;;;;;35.65;19.75;;;22.80;38.90;;;;;;6299769;27;83754;-42
2020/12/31 05:32:35;;;;;;;36.67;20.60;;;22.80;38.60;;;;;;6298607;27;83829;-42
2020/12/31 05:35:36;;;;;;;39.55;20.38;;;22.80;38.80;;;;;;6296825;27;83080;-42
2020/12/31 05:38:36;;;;;;;36.35;20.05;;;22.80;39.00;;;;;;6277288;27;84486;-42
2020/12/31 05:41:37;;;;;;;39.50;20.40;;;22.80;39.10;;;;;;6292409;27;83302;-41
2020/12/31 05:44:38;;;;;;;35.60;18.15;;;22.80;39.20;;;;;;6295829;27;84020;-43
2020/12/31 05:47:38;;;;;;;32.58;17.73;;;22.80;39.50;;;;;;6300312;27;91647;-42
2020/12/31 05:50:41;;;;;;;32.55;17.10;;;22.80;39.70;;;;;;6296090;27;83986;-42
2020/12/31 05:53:41;;;;;;;36.28;17.90;;;22.90;40.20;;;;;;6293358;27;83059;-41
2020/12/31 05:56:42;;;;;;;37.78;18.08;;;22.90;40.40;;;;;;6294073;27;83354;-42
2020/12/31 05:59:42;;;;;;;39.25;18.02;;;22.90;40.80;;;;;;6288031;27;84206;-42
2020/12/31 06:02:43;;;;;;;30.77;18.13;;;22.90;41.20;;;;;;6275436;27;85566;-42
2020/12/31 06:05:43;;;;;;;33.28;17.92;;;22.90;40.60;;;;;;6305100;27;84371;-42
2020/12/31 06:08:44;;;;;;;31.10;17.58;;;22.90;40.50;;;;;;6300551;27;82897;-42
2020/12/31 06:11:45;;;;;;;34.13;17.73;;;22.90;40.00;;;;;;6289123;27;83526;-42
2020/12/31 06:14:45;;;;;;;31.27;17.80;;;22.90;40.20;;;;;;6297355;27;90853;-42
2020/12/31 06:17:46;;;;;;;31.65;17.02;;;22.80;40.00;;;;;;6290011;27;83145;-47
2020/12/31 06:20:46;;;;;;;31.98;16.52;;;22.90;40.10;;;;;;6271961;27;85923;-42
2020/12/31 06:23:47;;;;;;;33.05;17.48;;;22.90;40.00;;;;;;6296632;27;84741;-43
2020/12/31 06:26:47;;;;;;;32.85;16.83;;;22.90;40.10;;;;;;6294405;27;84192;-43
2020/12/31 06:29:48;;;;;;;32.50;16.13;;;22.90;40.30;;;;;;6292650;27;83505;-42
2020/12/31 06:32:48;;;;;;;35.10;18.17;;;22.90;40.20;;;;;;6293787;27;85264;-42
2020/12/31 06:35:52;;;;;;;49.90;22.27;;;22.90;40.10;;;;;;6291195;27;83532;-43
2020/12/31 06:38:52;;;;;;;131.02;45.03;;;22.90;40.00;;;;;;6295793;27;83296;-43
2020/12/31 06:41:53;;;;;;;442.98;140.13;;;22.90;40.50;;;;;;6271848;27;83450;-42
2020/12/31 06:44:53;;;;;;;506.13;159.57;;;23.00;40.10;;;;;;6289387;27;86417;-42
2020/12/31 06:47:54;;;;;;;849.60;305.55;;;23.00;40.20;;;;;;6295963;27;85961;-42
2020/12/31 06:50:54;;;;;;;758.95;279.42;;;23.00;40.40;;;;;;6294879;27;85788;-43
2020/12/31 06:53:55;;;;;;;669.03;245.45;;;23.00;40.40;;;;;;6296122;27;85718;-42
2020/12/31 06:56:55;;;;;;;609.80;220.02;;;23.00;40.60;;;;;;6274492;27;86374;-43
2020/12/31 06:59:56;;;;;;;547.65;189.63;;;23.00;40.80;;;;;;6291839;27;86064;-43
2020/12/31 07:02:57;;;;;;;524.47;175.95;;;23.00;41.00;;;;;;6269190;27;88066;-42
2020/12/31 07:05:57;;;;;;;467.83;154.98;;;23.10;41.30;;;;;;6293259;27;92837;-42
2020/12/31 07:08:58;;;;;;;454.10;146.95;;;23.10;41.70;;;;;;6288857;27;85606;-43
2020/12/31 07:11:58;;;;;;;418.05;137.10;;;23.10;41.70;;;;;;6275481;27;87309;-42
2020/12/31 07:14:59;;;;;;;379.27;129.77;;;23.20;41.60;;;;;;6277856;27;92120;-42
2020/12/31 07:17:59;;;;;;;347.00;121.95;;;23.20;41.60;;;;;;6280896;27;85805;-42
2020/12/31 07:21:00;;;;;;;304.92;112.00;;;23.20;41.50;;;;;;6289931;27;85722;-42
2020/12/31 07:24:00;;;;;;;286.25;100.57;;;23.20;41.10;;;;;;6287566;27;87234;-42
2020/12/31 07:27:01;;;;;;;266.88;95.60;;;23.20;41.00;;;;;;6288822;27;85963;-41
2020/12/31 07:30:01;;;;;;;240.52;87.25;;;23.20;40.70;;;;;;6292996;27;86715;-42
2020/12/31 07:33:02;;;;;;;233.13;84.32;;;23.20;40.50;;;;;;6277886;27;86134;-43
2020/12/31 07:36:02;;;;;;;197.35;73.38;;;23.30;40.50;;;;;;6289478;27;83963;-43
2020/12/31 07:39:03;;;;;;;169.43;68.35;;;23.30;40.20;;;;;;6296534;27;84223;-42
2020/12/31 07:42:03;;;;;;;168.50;64.75;;;23.30;40.20;;;;;;6281218;27;83446;-43
2020/12/31 07:45:04;;;;;;;166.50;63.45;;;23.30;40.00;;;;;;6282486;27;85767;-43
2020/12/31 07:48:04;;;;;;;159.30;55.78;;;23.30;39.90;;;;;;6295851;27;83982;-41
2020/12/31 07:51:05;;;;;;;140.18;55.47;;;23.30;39.60;;;;;;6295736;27;84504;-45
2020/12/31 07:54:06;;;;;;;122.07;48.03;;;23.30;39.40;;;;;;6297427;27;84186;-43
2020/12/31 07:57:06;;;;;;;127.07;47.50;;;23.30;39.40;;;;;;6299114;27;83077;-43
2020/12/31 08:00:07;;;;;;;119.63;45.80;;;23.30;39.50;;;;;;6295286;27;83337;-43
2020/12/31 08:03:07;;;;;;;108.68;42.28;;;23.30;39.60;;;;;;6273284;27;84266;-43
2020/12/31 08:06:08;;;;;;;102.20;41.88;;;23.30;40.10;;;;;;6294801;27;83545;-43
2020/12/31 08:09:09;;;;;;;93.75;38.15;;;23.40;40.40;;;;;;6288531;27;84059;-43
2020/12/31 08:12:09;;;;;;;103.22;39.53;;;23.40;40.00;;;;;;6290425;27;83627;-43
2020/12/31 08:15:10;;;;;;;88.38;36.63;;;23.40;39.90;;;;;;6296868;27;84365;-42
2020/12/31 08:18:10;;;;;;;89.10;35.28;;;23.40;40.40;;;;;;6296457;27;83954;-43
2020/12/31 08:21:11;;;;;;;86.18;36.22;;;23.50;40.40;;;;;;6272759;27;84184;-42
2020/12/31 08:24:12;;;;;;;81.55;34.33;;;23.50;42.00;;;;;;6291494;27;82709;-42
2020/12/31 08:27:12;;;;;;;75.63;33.63;;;23.50;40.90;;;;;;6285965;27;83434;-43
2020/12/31 08:30:13;;;;;;;72.13;31.77;;;23.50;42.10;;;;;;6273034;27;84190;-44
2020/12/31 08:33:13;;;;;;;72.85;31.13;;;23.50;42.30;;;;;;6289516;27;83565;-44
2020/12/31 08:36:14;;;;;;;75.97;31.55;;;23.50;42.30;;;;;;6279100;27;84054;-42
2020/12/31 08:39:14;;;;;;;61.67;29.90;;;23.60;42.50;;;;;;6258192;27;83564;-49
2020/12/31 08:42:15;;;;;;;63.72;29.63;;;23.60;43.00;;;;;;6284045;27;85291;-43
2020/12/31 08:45:15;;;;;;;59.17;28.17;;;23.60;43.70;;;;;;6284380;27;84156;-43
2020/12/31 08:48:16;;;;;;;61.20;28.30;;;23.60;43.50;;;;;;6295331;27;83139;-42
2020/12/31 08:51:16;;;;;;;60.38;27.58;;;23.60;44.30;;;;;;6280618;27;82851;-43
2020/12/31 08:54:17;;;;;;;56.33;27.48;;;23.60;44.30;;;;;;6289904;27;83205;-42
2020/12/31 08:57:17;;;;;;;55.53;26.35;;;23.60;44.20;;;;;;6283092;27;83437;-42
2020/12/31 09:00:18;;;;;;;52.67;25.13;;;23.60;44.70;;;;;;6285798;27;84374;-43
2020/12/31 09:03:19;;;;;;;53.22;24.80;;;23.70;44.80;;;;;;6295717;27;83336;-44
2020/12/31 09:06:20;;;;;;;52.78;23.40;;;23.70;44.40;;;;;;6276868;27;84075;-42
2020/12/31 09:09:20;;;;;;;49.95;22.95;;;23.70;44.10;;;;;;6296082;27;84418;-42
2020/12/31 09:12:21;;;;;;;50.05;23.92;;;23.70;43.90;;;;;;6293547;27;87658;-46
2020/12/31 09:15:21;;;;;;;44.70;22.75;;;23.70;43.90;;;;;;6274123;27;84295;-43
2020/12/31 09:18:22;;;;;;;40.92;21.35;;;23.60;43.80;;;;;;6289882;27;84448;-43
2020/12/31 09:21:22;;;;;;;43.63;22.83;;;23.70;44.00;;;;;;6279183;27;88885;-42
2020/12/31 09:24:23;;;;;;;39.25;21.25;;;23.70;42.80;;;;;;6286538;27;83524;-42
2020/12/31 09:27:23;;;;;;;41.47;19.83;;;23.80;42.80;;;;;;6266568;27;83178;-48
2020/12/31 09:30:24;;;;;;;41.22;21.88;;;23.90;42.90;;;;;;6271977;27;85972;-49
2020/12/31 09:33:25;;;;;;;37.33;19.90;;;23.90;41.90;;;;;;6288007;27;85382;-49
2020/12/31 09:36:25;;;;;;;37.53;19.25;;;24.00;41.60;;;;;;6283761;27;83784;-45
2020/12/31 09:39:26;;;;;;;38.35;20.23;;;24.00;41.40;;;;;;6290537;27;83491;-46
2020/12/31 09:42:26;;;;;;;37.25;19.98;;;23.90;40.90;;;;;;6269345;27;86349;-47
2020/12/31 09:45:29;;;;;;;41.25;21.15;;;23.90;40.70;;;;;;6289030;27;84624;-46
2020/12/31 09:48:30;;;;;;;34.42;18.33;;;23.90;40.30;;;;;;6272938;27;84627;-46
2020/12/31 09:51:30;;;;;;;36.17;19.67;;;24.00;39.90;;;;;;6275596;27;83723;-48
2020/12/31 09:54:31;;;;;;;34.75;19.10;;;24.00;39.50;;;;;;6270180;27;86396;-45
2020/12/31 09:57:31;;;;;;;35.15;18.70;;;24.00;38.90;;;;;;6294280;27;84355;-46
2020/12/31 10:00:32;;;;;;;29.08;17.00;;;24.00;38.70;;;;;;6292776;27;83447;-47
2020/12/31 10:03:32;;;;;;;34.70;17.88;;;24.00;38.20;;;;;;6292423;27;84341;-44
2020/12/31 10:06:33;;;;;;;33.42;17.80;;;24.00;38.30;;;;;;6293300;27;84729;-46
2020/12/31 10:09:33;;;;;;;29.20;17.05;;;24.10;38.10;;;;;;6273165;27;83709;-45
2020/12/31 10:12:34;;;;;;;35.10;18.70;;;24.10;38.20;;;;;;6286046;27;84285;-47
2020/12/31 10:15:34;;;;;;;28.70;16.10;;;24.20;38.10;;;;;;6296026;27;83115;-46
2020/12/31 10:18:35;;;;;;;30.30;16.55;;;24.20;38.20;;;;;;6291113;27;84492;-44
2020/12/31 10:21:36;;;;;;;29.38;17.00;;;24.30;38.30;;;;;;6284671;27;83837;-44
2020/12/31 10:24:36;;;;;;;30.55;16.73;;;24.50;37.80;;;;;;6285570;27;87056;-43
2020/12/31 10:27:37;;;;;;;28.60;15.98;;;24.60;37.60;;;;;;6294093;27;83588;-43
2020/12/31 10:30:37;;;;;;;29.17;16.60;;;24.70;37.50;;;;;;6293887;27;83565;-45
2020/12/31 10:33:38;;;;;;;28.63;15.27;;;24.80;37.20;;;;;;6294666;27;83540;-44
2020/12/31 10:36:38;;;;;;;33.97;17.05;;;24.90;36.80;;;;;;6294640;27;83450;-42
2020/12/31 10:39:39;;;;;;;30.30;15.65;;;24.90;37.10;;;;;;6284035;27;84213;-45
2020/12/31 10:42:39;;;;;;;29.85;15.45;;;25.00;36.60;;;;;;6293006;27;83159;-46
2020/12/31 10:45:40;;;;;;;28.48;15.75;;;25.00;36.50;;;;;;6289174;27;83169;-45
2020/12/31 10:48:40;;;;;;;27.88;15.63;;;25.00;36.30;;;;;;6290659;27;83291;-47
2020/12/31 10:51:41;;;;;;;29.60;15.55;;;25.00;36.00;;;;;;6281585;27;85153;-47
2020/12/31 10:54:41;;;;;;;30.45;15.43;;;25.00;35.80;;;;;;6298084;27;83744;-44
2020/12/31 10:57:42;;;;;;;23.65;14.10;;;25.00;35.80;;;;;;6293809;27;83126;-48
2020/12/31 11:00:42;;;;;;;26.75;15.75;;;25.10;35.60;;;;;;6294038;27;83453;-45
2020/12/31 11:03:43;;;;;;;30.08;15.18;;;25.10;35.30;;;;;;6286483;27;83171;-47
2020/12/31 11:06:43;;;;;;;27.95;14.80;;;25.00;35.30;;;;;;6275790;27;84011;-44
2020/12/31 11:09:44;;;;;;;25.80;15.00;;;25.00;34.90;;;;;;6284321;27;83687;-46
2020/12/31 11:12:45;;;;;;;35.67;14.75;;;25.10;35.50;;;;;;6281510;27;83798;-45
2020/12/31 11:15:45;;;;;;;26.77;15.77;;;25.20;35.50;;;;;;6296885;27;83743;-44
2020/12/31 11:18:46;;;;;;;25.25;14.10;;;25.20;36.00;;;;;;6296049;27;89711;-45
2020/12/31 11:21:46;;;;;;;27.23;15.95;;;25.20;35.80;;;;;;6296964;27;83035;-46
2020/12/31 11:24:47;;;;;;;26.63;13.90;;;25.20;36.40;;;;;;6296911;27;83460;-46
2020/12/31 11:27:48;;;;;;;24.45;14.55;;;25.10;36.30;;;;;;6294764;27;83569;-45
2020/12/31 11:30:49;;;;;;;26.90;14.68;;;25.10;36.20;;;;;;6296385;27;83405;-52
2020/12/31 11:33:49;;;;;;;28.30;15.48;;;25.00;37.10;;;;;;6290277;27;84348;-48
2020/12/31 13:44:33;;;;;;;27.10;12.57;;;24.40;33.30;;;;;;6091369;28;83315;-78
2020/12/31 13:53:34;;;;;;;26.00;13.87;;;24.30;33.30;;;;;;6091990;28;92450;-71
2020/12/31 13:56:35;;;;;;;23.33;12.13;;;24.40;33.10;;;;;;6085524;28;82960;-70
2020/12/31 13:59:35;;;;;;;24.55;12.75;;;24.30;33.00;;;;;;6092632;28;83584;-71
2020/12/31 14:02:36;;;;;;;24.15;12.45;;;24.30;33.30;;;;;;6095050;28;83506;-71
2020/12/31 14:05:36;;;;;;;22.25;12.15;;;24.30;33.30;;;;;;6094344;28;83185;-67
2020/12/31 14:08:37;;;;;;;23.70;12.77;;;24.30;33.30;;;;;;6102314;28;84106;-65
2020/12/31 14:11:37;;;;;;;25.88;13.27;;;24.30;33.30;;;;;;6106438;28;83621;-65
2020/12/31 14:14:38;;;;;;;22.45;11.63;;;24.30;33.20;;;;;;6076903;28;84320;-63
2020/12/31 14:17:38;;;;;;;20.20;12.13;;;24.20;33.40;;;;;;6089134;28;83105;-67
2020/12/31 14:20:39;;;;;;;20.73;12.18;;;24.10;33.20;;;;;;6091026;28;83817;-66
2020/12/31 14:23:40;;;;;;;21.52;12.23;;;24.20;33.50;;;;;;6089426;28;82928;-65
2020/12/31 14:26:40;;;;;;;23.75;11.85;;;24.10;33.70;;;;;;6093365;28;83612;-67
2020/12/31 14:29:41;;;;;;;24.50;12.35;;;24.20;33.80;;;;;;6090085;28;83248;-64
2020/12/31 14:32:41;;;;;;;23.60;11.10;;;24.10;33.80;;;;;;6085560;28;83847;-64
2020/12/31 14:35:42;;;;;;;22.75;11.70;;;24.10;33.70;;;;;;6084455;28;84246;-65
2020/12/31 14:38:42;;;;;;;22.23;11.73;;;24.10;33.80;;;;;;6086651;28;83722;-65
2020/12/31 14:41:44;;;;;;;20.85;11.68;;;24.10;34.00;;;;;;6084994;28;83021;-63
2020/12/31 14:44:45;;;;;;;24.45;12.40;;;24.10;33.80;;;;;;6094959;28;83606;-64
2020/12/31 14:47:46;;;;;;;19.80;11.45;;;24.10;33.80;;;;;;6098219;28;83119;-64
2020/12/31 14:50:46;;;;;;;22.75;12.48;;;24.10;33.30;;;;;;6096124;28;83845;-64
2020/12/31 14:53:47;;;;;;;27.48;14.43;;;24.20;33.50;;;;;;6094816;28;83589;-64
2020/12/31 14:56:47;;;;;;;25.15;12.77;;;24.20;33.50;;;;;;6095939;28;83152;-63
2020/12/31 14:59:48;;;;;;;22.90;12.35;;;24.20;33.80;;;;;;6098907;28;83074;-64
2020/12/31 15:02:48;;;;;;;26.30;12.82;;;24.30;34.00;;;;;;6096913;28;83838;-64
2020/12/31 15:05:49;;;;;;;24.02;12.73;;;24.30;34.30;;;;;;6097310;28;83420;-64
2020/12/31 15:08:49;;;;;;;28.42;12.98;;;24.30;34.40;;;;;;6098012;28;84144;-63
2020/12/31 15:11:50;;;;;;;25.42;12.60;;;24.30;34.60;;;;;;6095819;28;84034;-64
2020/12/31 15:14:51;;;;;;;23.17;12.73;;;24.30;34.60;;;;;;6099829;28;83403;-63
2020/12/31 15:17:51;;;;;;;27.38;13.23;;;24.30;35.70;;;;;;6096984;28;84061;-62
2020/12/31 15:20:52;;;;;;;26.50;13.55;;;24.20;34.90;;;;;;6100339;28;83263;-63
2020/12/31 15:23:52;;;;;;;24.58;12.90;;;24.30;44.30;;;;;;6089525;28;85923;-64
2020/12/31 15:26:53;;;;;;;26.08;13.90;;;24.20;35.10;;;;;;6101651;28;83285;-63
2020/12/31 15:29:53;;;;;;;21.88;13.45;;;24.20;35.10;;;;;;6099806;28;84611;-66
2020/12/31 15:32:54;;;;;;;23.73;12.85;;;24.20;35.00;;;;;;6107424;28;83220;-64
2020/12/31 15:41:55;;;;;;;20.47;12.53;;;24.10;34.70;;;;;;6093331;28;93815;-67
2020/12/31 15:44:55;;;;;;;23.63;12.95;;;24.20;34.80;;;;;;6098402;28;83454;-64
2020/12/31 15:47:56;;;;;;;23.85;13.43;;;24.10;34.80;;;;;;6099781;28;83381;-66
2020/12/31 15:50:56;;;;;;;24.38;13.55;;;24.10;35.80;;;;;;6101623;28;86222;-68
2020/12/31 15:53:57;;;;;;;22.20;13.77;;;24.60;35.70;;;;;;6100928;28;83505;-67
2020/12/31 15:56:57;;;;;;;24.98;14.65;;;24.20;35.50;;;;;;6094145;28;82905;-67
2020/12/31 15:59:58;;;;;;;23.58;14.18;;;24.10;35.60;;;;;;6101905;28;84177;-66
2020/12/31 16:02:59;;;;;;;24.10;13.75;;;24.10;35.70;;;;;;6098910;28;85315;-66
2020/12/31 16:05:59;;;;;;;24.75;13.60;;;24.10;35.80;;;;;;6100110;28;83674;-66
2020/12/31 16:09:00;;;;;;;27.55;13.90;;;24.10;36.10;;;;;;6098831;28;83405;-68
2020/12/31 16:12:00;;;;;;;36.95;16.35;;;24.00;35.90;;;;;;6095588;28;83437;-65
2020/12/31 16:15:01;;;;;;;29.52;14.75;;;24.00;35.80;;;;;;6097772;28;85700;-69
2020/12/31 16:18:02;;;;;;;30.25;14.23;;;24.00;36.20;;;;;;6095597;28;83891;-67
2020/12/31 16:21:03;;;;;;;32.08;14.70;;;24.00;36.30;;;;;;6090413;28;83602;-71
2020/12/31 16:24:03;;;;;;;27.00;15.10;;;23.90;36.00;;;;;;6095465;28;83432;-66
2020/12/31 16:27:04;;;;;;;27.45;15.43;;;24.00;36.30;;;;;;6100603;28;83005;-72
2020/12/31 16:30:04;;;;;;;29.10;15.35;;;23.90;36.00;;;;;;6077872;28;84568;-67
2020/12/31 16:33:07;;;;;;;28.08;14.52;;;24.00;36.50;;;;;;6097856;28;83577;-68
2020/12/31 16:36:07;;;;;;;29.38;15.10;;;23.90;36.30;;;;;;6098421;28;83440;-68
2020/12/31 16:39:08;;;;;;;30.15;17.30;;;24.50;45.40;;;;;;6097941;28;83630;-67
2020/12/31 16:42:08;;;;;;;26.73;16.83;;;23.90;36.30;;;;;;6089802;28;83154;-68
2020/12/31 16:45:09;;;;;;;32.00;18.33;;;23.90;36.30;;;;;;6106822;28;83407;-67
2020/12/31 16:48:10;;;;;;;36.08;18.67;;;23.90;36.40;;;;;;6102806;28;83782;-68
2020/12/31 16:51:10;;;;;;;34.67;19.25;;;23.90;36.30;;;;;;6106803;28;83111;-68
2020/12/31 16:54:11;;;;;;;36.95;20.17;;;23.90;36.10;;;;;;6106159;28;83629;-70
2020/12/31 16:57:11;;;;;;;37.30;19.05;;;24.00;36.30;;;;;;6105466;28;84075;-68
2020/12/31 17:00:12;;;;;;;34.00;20.70;;;24.00;36.30;;;;;;6103210;28;83413;-67
2020/12/31 17:03:12;;;;;;;38.28;21.48;;;23.90;35.90;;;;;;6101478;28;83589;-67
2020/12/31 17:06:13;;;;;;;39.33;20.10;;;23.90;35.40;;;;;;6103561;28;83236;-67
2020/12/31 17:09:13;;;;;;;40.05;21.75;;;23.80;35.40;;;;;;6102531;28;83571;-66
2020/12/31 17:12:14;;;;;;;38.42;20.85;;;23.90;36.00;;;;;;6101701;28;82833;-66
2020/12/31 17:15:14;;;;;;;35.83;21.05;;;23.90;36.30;;;;;;6102630;28;83602;-67
2020/12/31 17:18:15;;;;;;;35.05;19.27;;;23.90;36.20;;;;;;6102048;28;83562;-66
2020/12/31 17:21:15;;;;;;;31.73;19.23;;;23.90;36.10;;;;;;6100570;28;83306;-66
2020/12/31 17:24:16;;;;;;;39.70;19.77;;;24.10;36.00;;;;;;6090863;28;84817;-66
2020/12/31 17:27:16;;;;;;;35.03;20.23;;;23.90;35.90;;;;;;6102744;28;82896;-65
2020/12/31 17:30:17;;;;;;;36.00;20.75;;;24.00;35.90;;;;;;6093784;28;82981;-66
2020/12/31 17:33:17;;;;;;;34.50;19.02;;;24.00;35.90;;;;;;6101556;28;83607;-65